Time;durP1;ratioP1;P1;durP2;ratioP2;P2;SDS_P1;SDS_P2;PMS_P1;PMS_P2;Temp;Humidity;BMP_temperature;BMP_pressure;BME280_temperature;BME280_humidity;BME280_pressure;Samples;Min_cycle;Max_cycle;Signal;HPM_P1;HPM_P2
2022/05/15 00:01:14;;;;;;;23.93;11.00;;;;;;;12.87;70.53;101839.03;5081601;28;20183;-64
2022/05/15 00:03:40;;;;;;;24.93;9.97;;;;;;;12.89;70.22;101832.94;5081421;28;20418;-64
2022/05/15 00:06:05;;;;;;;24.07;10.77;;;;;;;12.89;70.37;101838.16;5081388;28;20502;-65
2022/05/15 00:08:33;;;;;;;19.80;9.70;;;;;;;12.89;70.40;101837.31;5081416;28;20165;-64
2022/05/15 00:10:58;;;;;;;22.53;9.90;;;;;;;12.98;70.24;101842.72;5081128;28;20165;-64
2022/05/15 00:13:25;;;;;;;25.67;13.20;;;;;;;12.97;70.58;101843.56;5081394;28;20417;-65
2022/05/15 00:15:50;;;;;;;24.00;10.67;;;;;;;13.09;70.19;101842.88;5080871;28;20173;-65
2022/05/15 00:18:20;;;;;;;22.00;12.83;;;;;;;13.01;70.58;101845.38;5081034;28;20425;-64
2022/05/15 00:20:46;;;;;;;23.23;11.17;;;;;;;12.85;70.54;101851.19;5063792;28;20173;-64
2022/05/15 00:23:11;;;;;;;16.17;11.03;;;;;;;12.88;71.12;101846.00;5080939;28;20396;-64
2022/05/15 00:25:37;;;;;;;23.17;11.73;;;;;;;12.79;70.91;101846.72;5081466;28;20181;-64
2022/05/15 00:28:03;;;;;;;17.53;10.70;;;;;;;12.64;71.65;101848.19;5081088;28;20215;-65
2022/05/15 00:30:29;;;;;;;26.27;12.70;;;;;;;12.86;70.88;101839.88;5081164;28;20681;-64
2022/05/15 00:32:54;;;;;;;20.73;11.90;;;;;;;12.48;72.02;101838.31;5081418;28;20176;-64
2022/05/15 00:35:19;;;;;;;24.10;11.20;;;;;;;12.42;72.63;101840.78;5081038;28;20255;-65
2022/05/15 00:37:45;;;;;;;25.23;10.97;;;;;;;12.44;72.69;101842.59;5080172;28;20219;-64
2022/05/15 00:40:12;;;;;;;24.63;11.50;;;;;;;12.49;72.58;101839.16;5081273;28;20173;-65
2022/05/15 00:42:37;;;;;;;22.80;12.13;;;;;;;12.49;72.33;101839.16;5080680;28;20396;-65
2022/05/15 00:45:04;;;;;;;23.93;12.03;;;;;;;12.61;72.21;101835.06;5080819;28;20461;-64
2022/05/15 00:47:30;;;;;;;25.97;12.30;;;;;;;12.41;72.53;101826.84;5080773;28;20220;-63
2022/05/15 00:49:55;;;;;;;23.70;12.10;;;;;;;12.95;71.30;101830.44;5080549;28;20421;-64
2022/05/15 00:52:27;;;;;;;29.40;12.10;;;;;;;12.71;71.38;101828.25;5080248;28;20172;-64
2022/05/15 00:55:06;;;;;;;30.43;11.93;;;;;;;12.46;72.29;101830.44;5080046;28;20187;-65
2022/05/15 00:57:36;;;;;;;23.93;11.30;;;;;;;12.36;72.86;101836.31;5079912;28;20455;-64
2022/05/15 01:00:16;;;;;;;21.70;11.30;;;;;;;12.46;73.07;101833.03;5080546;28;20397;-65
2022/05/15 01:02:44;;;;;;;20.97;11.30;;;;;;;12.55;72.43;101844.53;5080415;28;20457;-64
2022/05/15 01:05:12;;;;;;;24.50;11.17;;;;;;;12.25;72.86;101836.09;5079785;28;20494;-64
2022/05/15 01:07:37;;;;;;;24.90;10.90;;;;;;;12.23;73.23;101836.91;5080201;28;20416;-64
2022/05/15 01:10:05;;;;;;;30.33;13.00;;;;;;;12.29;73.41;101840.53;5080771;28;20443;-64
2022/05/15 01:12:33;;;;;;;23.30;12.70;;;;;;;12.42;73.65;101840.78;5079404;28;20173;-65
2022/05/15 01:14:58;;;;;;;21.70;12.70;;;;;;;12.29;73.39;101844.91;5080273;28;20411;-64
2022/05/15 01:17:24;;;;;;;27.97;11.77;;;;;;;12.37;73.16;101839.84;5080671;28;20454;-64
2022/05/15 01:19:49;;;;;;;30.17;14.53;;;;;;;12.13;74.12;101852.41;5080077;28;20542;-65
2022/05/15 01:22:15;;;;;;;22.00;12.93;;;;;;;12.25;73.79;101843.94;5079880;28;20260;-64
2022/05/15 01:24:42;;;;;;;30.10;13.07;;;;;;;12.35;73.75;101847.63;5080401;28;20264;-64
2022/05/15 01:27:09;;;;;;;25.63;11.60;;;;;;;12.37;73.48;101847.69;5079947;28;20173;-64
2022/05/15 01:29:38;;;;;;;35.97;12.93;;;;;;;12.46;73.00;101851.34;5079910;28;20437;-64
2022/05/15 01:32:04;;;;;;;29.77;12.00;;;;;;;12.43;73.31;101853.00;5080081;28;20446;-64
2022/05/15 01:34:30;;;;;;;23.20;11.80;;;;;;;12.24;73.45;101843.91;5079769;28;20404;-64
2022/05/15 01:36:57;;;;;;;23.67;11.80;;;;;;;12.25;73.99;101854.41;5080053;28;20454;-64
2022/05/15 01:39:22;;;;;;;23.23;12.60;;;;;;;12.22;73.97;101854.34;5080231;28;20407;-64
2022/05/15 01:41:48;;;;;;;27.50;14.67;;;;;;;12.20;73.91;101855.16;5079680;28;20405;-64
2022/05/15 01:44:13;;;;;;;30.00;11.60;;;;;;;12.16;74.21;101848.97;5079611;28;20173;-64
2022/05/15 01:46:38;;;;;;;26.17;12.40;;;;;;;12.25;74.06;101849.19;5079624;28;20234;-65
2022/05/15 01:49:06;;;;;;;24.40;13.10;;;;;;;12.19;74.30;101848.16;5079635;28;20451;-64
2022/05/15 01:51:32;;;;;;;23.77;13.63;;;;;;;12.09;74.28;101850.59;5079537;28;20549;-64
2022/05/15 01:53:58;;;;;;;40.30;20.47;;;;;;;12.07;74.57;101854.91;5079529;28;20646;-65
2022/05/15 01:56:23;;;;;;;40.63;20.17;;;;;;;12.15;74.54;101848.94;5078737;28;20398;-65
2022/05/15 01:58:49;;;;;;;26.67;17.70;;;;;;;12.33;74.16;101845.84;5079871;28;20401;-64
2022/05/15 02:01:14;;;;;;;47.00;33.20;;;;;;;12.10;74.11;101857.59;5079182;28;20173;-65
2022/05/15 02:03:39;;;;;;;38.87;28.67;;;;;;;12.05;75.04;101855.72;5079225;28;20185;-63
2022/05/15 02:06:05;;;;;;;37.13;29.93;;;;;;;12.34;73.84;101848.50;5082870;28;20173;-64
2022/05/15 02:08:34;;;;;;;45.23;33.57;;;;;;;12.41;73.35;101849.50;5086908;28;20177;-64
2022/05/15 02:11:00;;;;;;;52.93;34.43;;;;;;;12.33;73.89;101854.56;5079767;28;20434;-64
2022/05/15 02:13:25;;;;;;;48.37;34.37;;;;;;;12.12;73.97;101858.50;5079634;28;20483;-64
2022/05/15 02:15:50;;;;;;;42.70;29.53;;;;;;;12.10;74.79;101854.97;5079063;28;20437;-64
2022/05/15 02:18:16;;;;;;;42.00;30.43;;;;;;;12.24;74.42;101857.00;5078937;28;20248;-63
2022/05/15 02:20:41;;;;;;;38.80;25.97;;;;;;;12.18;74.17;101857.75;5079306;28;20165;-64
2022/05/15 02:23:06;;;;;;;39.80;26.13;;;;;;;12.09;74.75;101861.03;5078713;28;20165;-65
2022/05/15 02:25:32;;;;;;;36.23;22.53;;;;;;;12.27;73.63;101844.88;5078113;28;20246;-64
2022/05/15 02:27:58;;;;;;;36.50;21.50;;;;;;;12.21;73.50;101851.72;5078704;28;20192;-63
2022/05/15 02:30:24;;;;;;;36.07;20.20;;;;;;;12.00;74.58;101853.03;5078831;28;20165;-64
2022/05/15 02:32:49;;;;;;;35.70;20.07;;;;;;;12.15;74.28;101851.56;5078674;28;20171;-64
2022/05/15 02:35:15;;;;;;;31.33;19.60;;;;;;;11.74;75.26;101852.41;5079357;28;20165;-64
2022/05/15 02:37:44;;;;;;;38.83;19.23;;;;;;;11.92;74.69;101852.81;5078527;28;20631;-64
2022/05/15 02:40:11;;;;;;;29.33;17.60;;;;;;;12.31;73.25;101845.81;5078510;28;20175;-64
2022/05/15 02:42:37;;;;;;;31.83;16.93;;;;;;;12.22;73.51;101849.13;5079068;28;20399;-65
2022/05/15 02:45:03;;;;;;;30.03;18.40;;;;;;;12.18;73.29;101856.84;5078403;28;20840;-64
2022/05/15 02:47:28;;;;;;;29.80;16.83;;;;;;;11.98;74.58;101854.72;5078125;28;20225;-64
2022/05/15 02:52:38;;;;;;;28.33;16.10;;;;;;;11.99;74.23;101848.63;5078352;28;20223;-64
2022/05/15 02:55:03;;;;;;;28.00;15.83;;;;;;;11.89;74.67;101846.63;5078487;28;20694;-63
2022/05/15 02:57:29;;;;;;;26.97;15.00;;;;;;;12.05;74.29;101848.75;5078252;28;20215;-63
2022/05/15 02:59:54;;;;;;;33.50;17.53;;;;;;;12.17;73.80;101849.88;5078408;28;20286;-64
2022/05/15 03:02:20;;;;;;;28.93;15.10;;;;;;;11.92;73.98;101857.13;5078646;28;20161;-63
2022/05/15 03:04:47;;;;;;;32.27;16.67;;;;;;;11.90;74.53;101862.34;5078227;28;20176;-64
2022/05/15 03:07:12;;;;;;;27.33;15.83;;;;;;;12.08;74.05;101856.69;5078414;28;20177;-64
2022/05/15 03:09:38;;;;;;;31.97;16.87;;;;;;;12.01;73.70;101852.16;5078680;28;20790;-64
2022/05/15 03:12:03;;;;;;;30.63;16.33;;;;;;;11.79;74.42;101869.94;5077039;28;20311;-65
2022/05/15 03:14:29;;;;;;;24.70;15.33;;;;;;;11.89;74.27;101864.91;5078084;28;20176;-64
2022/05/15 03:16:55;;;;;;;25.97;16.73;;;;;;;12.15;73.65;101862.03;5078173;28;20189;-65
2022/05/15 03:19:20;;;;;;;32.83;17.73;;;;;;;12.17;73.16;101865.56;5078160;28;20659;-66
2022/05/15 03:21:46;;;;;;;32.77;17.40;;;;;;;11.67;74.62;101869.66;5077966;28;20181;-65
2022/05/15 03:24:12;;;;;;;28.83;17.30;;;;;;;11.73;74.73;101868.91;5078683;28;20242;-64
2022/05/15 03:26:40;;;;;;;34.97;16.73;;;;;;;12.07;74.31;101870.59;5077363;28;20183;-64
2022/05/15 03:29:06;;;;;;;35.70;18.13;;;;;;;12.01;74.26;101866.97;5077962;28;20440;-64
2022/05/15 03:31:36;;;;;;;28.30;18.40;;;;;;;12.09;74.27;101876.72;5078594;28;20388;-64
2022/05/15 03:34:05;;;;;;;25.20;16.97;;;;;;;12.05;73.77;101880.13;5077966;28;20411;-65
2022/05/15 03:36:30;;;;;;;28.00;16.80;;;;;;;11.84;74.65;101882.22;5077126;28;20678;-64
2022/05/15 03:38:56;;;;;;;27.93;16.93;;;;;;;12.20;73.89;101879.56;5078436;28;20389;-64
2022/05/15 03:41:21;;;;;;;24.80;16.30;;;;;;;12.06;74.09;101887.13;5077902;28;20177;-64
2022/05/15 03:43:47;;;;;;;29.77;16.47;;;;;;;12.01;74.31;101886.13;5077731;28;20234;-64
2022/05/15 03:46:12;;;;;;;24.20;15.90;;;;;;;12.23;74.20;101882.28;5078194;28;20176;-64
2022/05/15 03:48:37;;;;;;;35.60;15.27;;;;;;;12.35;72.81;101879.00;5077936;28;20542;-64
2022/05/15 03:51:03;;;;;;;26.83;15.07;;;;;;;12.20;73.84;101889.16;5077927;28;20530;-64
2022/05/15 03:53:29;;;;;;;27.90;15.60;;;;;;;12.36;73.55;101892.97;5077626;28;20176;-64
2022/05/15 03:55:58;;;;;;;27.00;15.07;;;;;;;12.02;74.54;101892.25;5077752;28;20530;-64
2022/05/15 03:58:23;;;;;;;27.43;15.23;;;;;;;12.29;73.81;101889.34;5077942;28;20246;-64
2022/05/15 04:00:49;;;;;;;25.60;15.77;;;;;;;12.65;72.61;101890.97;5077731;28;20393;-64
2022/05/15 04:03:14;;;;;;;25.07;14.50;;;;;;;13.14;71.63;101890.97;5077632;28;20307;-64
2022/05/15 04:05:39;;;;;;;28.10;15.00;;;;;;;13.48;69.20;101892.44;5077881;28;20197;-65
2022/05/15 04:08:05;;;;;;;26.13;13.10;;;;;;;14.49;66.49;101892.13;5077631;28;20541;-64
2022/05/15 04:10:30;;;;;;;17.90;11.80;;;;;;;14.17;65.47;101901.31;5077602;28;20165;-64
2022/05/15 04:12:55;;;;;;;18.23;11.90;;;;;;;14.89;64.43;101896.09;5078103;28;20196;-65
2022/05/15 04:15:21;;;;;;;17.53;11.80;;;;;;;15.19;62.84;101895.47;5077423;28;20172;-64
2022/05/15 04:17:51;;;;;;;15.43;12.00;;;;;;;16.26;60.00;101897.13;5077688;28;20201;-63
2022/05/15 04:20:19;;;;;;;17.77;11.40;;;;;;;16.13;59.63;101897.97;5078122;28;20192;-65
2022/05/15 04:22:45;;;;;;;17.57;12.10;;;;;;;14.89;61.62;101898.72;5077312;28;20445;-65
2022/05/15 04:25:11;;;;;;;46.73;12.90;;;;;;;14.53;63.47;101902.63;5077270;28;20443;-65
2022/05/15 04:27:37;;;;;;;40.47;11.70;;;;;;;14.35;65.03;101911.19;5077715;28;20189;-64
2022/05/15 04:30:03;;;;;;;30.53;11.60;;;;;;;14.02;66.18;101905.50;5079916;28;20426;-64
2022/05/15 04:32:28;;;;;;;28.47;12.00;;;;;;;13.97;65.92;101909.78;5080886;28;20172;-64
2022/05/15 04:34:53;;;;;;;15.17;11.97;;;;;;;14.42;65.02;101911.28;5081511;28;20173;-65
2022/05/15 04:37:19;;;;;;;15.77;11.97;;;;;;;15.23;63.36;101909.53;5080944;28;20215;-66
2022/05/15 04:39:44;;;;;;;14.07;11.20;;;;;;;15.25;61.49;101905.16;5080794;28;20204;-66
2022/05/15 04:42:09;;;;;;;10.33;8.97;;;;;;;16.23;58.57;101909.41;5081105;28;20197;-65
2022/05/15 04:44:35;;;;;;;11.13;9.00;;;;;;;15.81;58.57;101909.16;5080832;28;20520;-65
2022/05/15 04:47:00;;;;;;;9.60;8.80;;;;;;;16.33;57.63;101905.91;5080693;28;20221;-66
2022/05/15 04:49:25;;;;;;;8.70;7.80;;;;;;;16.70;55.68;101906.06;5081290;28;20177;-66
2022/05/15 04:51:51;;;;;;;9.40;8.20;;;;;;;17.89;52.96;101906.16;5080515;28;20440;-66
2022/05/15 04:54:16;;;;;;;9.10;8.20;;;;;;;17.12;54.44;101908.81;5080612;28;20218;-66
2022/05/15 04:56:41;;;;;;;9.33;8.50;;;;;;;16.63;56.01;101914.84;5080953;28;20196;-66
2022/05/15 04:59:06;;;;;;;8.80;8.00;;;;;;;16.95;55.29;101912.31;5080529;28;20427;-65
2022/05/15 05:01:32;;;;;;;9.10;8.30;;;;;;;17.12;54.98;101914.97;5080340;28;20173;-66
2022/05/15 05:03:58;;;;;;;8.83;8.03;;;;;;;16.87;55.38;101907.84;5080909;28;20268;-66
2022/05/15 05:06:24;;;;;;;9.43;8.63;;;;;;;18.20;52.44;101914.03;5079629;28;20204;-66
2022/05/15 05:08:50;;;;;;;9.27;8.37;;;;;;;19.12;49.94;101906.50;5080159;28;20169;-67
2022/05/15 05:11:16;;;;;;;9.40;8.10;;;;;;;18.79;49.91;101911.09;5079804;28;20447;-66
2022/05/15 05:13:41;;;;;;;10.43;7.80;;;;;;;18.37;51.25;101913.94;5082969;28;20177;-66
2022/05/15 05:16:06;;;;;;;9.43;7.90;;;;;;;19.98;47.50;101912.81;5075881;28;20522;-66
2022/05/15 05:18:32;;;;;;;10.00;7.83;;;;;;;18.91;49.45;101918.97;5060572;28;20189;-67
2022/05/15 05:20:57;;;;;;;10.47;8.27;;;;;;;19.13;49.07;101919.75;5072671;28;20238;-66
2022/05/15 05:23:23;;;;;;;8.83;7.30;;;;;;;19.40;48.41;101925.69;5068631;28;20191;-67
2022/05/15 05:25:48;;;;;;;9.73;8.30;;;;;;;20.14;46.50;101924.13;5080345;28;20169;-66
2022/05/15 05:28:15;;;;;;;9.50;7.53;;;;;;;20.66;45.91;101925.25;5079944;28;20207;-67
2022/05/15 05:30:40;;;;;;;10.23;7.73;;;;;;;20.72;46.03;101924.34;5079660;28;20455;-67
2022/05/15 05:33:06;;;;;;;10.10;7.37;;;;;;;20.43;46.02;101925.53;5079442;28;20415;-67
2022/05/15 05:35:32;;;;;;;11.30;8.40;;;;;;;19.84;47.40;101929.72;5077993;28;20199;-67
2022/05/15 05:37:57;;;;;;;10.87;7.33;;;;;;;20.65;45.99;101924.38;5071474;28;20473;-67
2022/05/15 05:40:23;;;;;;;8.33;7.17;;;;;;;18.96;49.79;101940.97;5076604;28;20440;-67
2022/05/15 05:42:48;;;;;;;11.67;8.00;;;;;;;20.59;46.25;101929.75;5072004;28;20189;-66
2022/05/15 05:45:14;;;;;;;10.07;7.40;;;;;;;20.87;45.04;101926.75;5059555;28;20470;-67
2022/05/15 05:47:40;;;;;;;10.77;7.80;;;;;;;20.53;46.20;101936.00;5073429;28;20598;-68
2022/05/15 05:50:08;;;;;;;11.67;7.87;;;;;;;20.45;46.82;101937.88;5079555;28;20461;-68
2022/05/15 05:52:37;;;;;;;14.07;8.03;;;;;;;20.93;45.26;101933.75;5079494;28;20187;-68
2022/05/15 05:55:03;;;;;;;11.43;8.13;;;;;;;21.52;44.22;101931.91;5079268;28;20415;-67
2022/05/15 05:57:29;;;;;;;9.50;7.07;;;;;;;20.92;44.96;101943.47;5079164;28;20781;-67
2022/05/15 05:59:54;;;;;;;9.57;7.10;;;;;;;21.60;44.19;101945.09;5065193;28;20447;-67
2022/05/15 06:02:19;;;;;;;13.50;8.00;;;;;;;21.18;44.40;101947.50;5058273;28;20173;-67
2022/05/15 06:04:46;;;;;;;10.60;7.47;;;;;;;21.66;43.70;101941.44;5066744;28;20188;-67
2022/05/15 06:07:18;;;;;;;7.90;6.30;;;;;;;22.31;41.78;101940.22;5077042;28;20191;-66
2022/05/15 06:09:45;;;;;;;9.90;6.83;;;;;;;22.54;41.30;101938.00;5068906;28;20725;-67
2022/05/15 06:12:12;;;;;;;8.20;6.07;;;;;;;23.12;40.10;101932.25;5064741;28;20557;-68
2022/05/15 06:14:37;;;;;;;10.03;6.00;;;;;;;20.79;43.75;101941.91;5074261;28;20420;-68
2022/05/15 06:17:03;;;;;;;7.77;5.70;;;;;;;22.08;41.35;101941.53;5058687;28;20478;-68
2022/05/15 06:19:29;;;;;;;10.93;6.30;;;;;;;23.37;38.76;101939.69;5068503;28;20203;-68
2022/05/15 06:21:54;;;;;;;8.40;6.03;;;;;;;22.20;41.07;101941.34;5077343;28;20438;-68
2022/05/15 06:24:19;;;;;;;7.47;5.03;;;;;;;20.13;44.35;101952.38;5064564;28;20201;-67
2022/05/15 06:26:45;;;;;;;10.77;6.03;;;;;;;21.79;42.01;101940.31;5067297;28;20192;-68
2022/05/15 06:29:10;;;;;;;8.27;5.50;;;;;;;23.30;38.22;101940.75;5079130;28;20161;-68
2022/05/15 06:31:35;;;;;;;9.20;5.70;;;;;;;22.06;41.55;101951.34;5062601;28;20189;-67
2022/05/15 06:34:01;;;;;;;10.13;5.83;;;;;;;22.67;39.78;101940.41;5058645;28;20177;-67
2022/05/15 06:36:26;;;;;;;6.07;4.70;;;;;;;22.80;38.79;101933.91;5058991;28;20174;-68
2022/05/15 06:38:51;;;;;;;7.97;5.07;;;;;;;23.80;36.06;101927.03;5058474;28;20227;-67
2022/05/15 06:41:17;;;;;;;6.43;4.20;;;;;;;23.82;34.75;101923.44;5058386;28;20268;-67
2022/05/15 06:43:42;;;;;;;5.70;4.27;;;;;;;22.39;36.07;101934.78;5073278;28;20534;-67
2022/05/15 06:46:07;;;;;;;7.07;4.13;;;;;;;23.13;36.00;101927.88;5078240;28;20169;-69
2022/05/15 06:48:33;;;;;;;6.10;4.60;;;;;;;23.86;36.06;101933.06;5078496;28;20177;-67
2022/05/15 06:50:59;;;;;;;7.13;4.87;;;;;;;21.11;38.31;101944.06;5078625;28;20188;-67
2022/05/15 06:53:25;;;;;;;6.73;4.20;;;;;;;20.65;41.18;101944.72;5077098;28;20180;-68
2022/05/15 06:58:34;;;;;;;8.10;4.20;;;;;;;23.48;35.25;101939.44;5071100;28;20266;-67
2022/05/15 07:00:59;;;;;;;6.00;3.93;;;;;;;22.99;35.99;101928.16;5071789;28;20707;-67
2022/05/15 07:03:25;;;;;;;5.57;3.90;;;;;;;21.92;36.58;101938.34;5078214;28;20184;-69
2022/05/15 07:05:50;;;;;;;6.53;4.60;;;;;;;22.90;35.67;101931.91;5073660;28;20630;-68
2022/05/15 07:08:16;;;;;;;4.90;4.00;;;;;;;24.36;32.47;101926.41;5076233;28;20176;-67
2022/05/15 07:10:42;;;;;;;5.30;3.60;;;;;;;23.36;32.50;101928.16;5072430;28;20219;-68
2022/05/15 07:13:07;;;;;;;4.77;3.80;;;;;;;22.51;34.32;101929.22;5076980;28;20201;-67
2022/05/15 07:15:33;;;;;;;5.40;3.80;;;;;;;23.59;32.30;101934.69;5076773;28;20179;-67
2022/05/15 07:17:59;;;;;;;6.00;3.90;;;;;;;26.05;28.81;101922.72;5076441;28;21005;-68
2022/05/15 07:20:24;;;;;;;4.00;3.50;;;;;;;21.74;32.88;101939.53;5072278;28;20192;-67
2022/05/15 07:22:50;;;;;;;5.27;3.33;;;;;;;24.04;30.95;101930.84;5076668;28;20574;-67
2022/05/15 07:25:16;;;;;;;4.90;3.93;;;;;;;26.13;28.50;101922.44;5059732;28;20200;-69
2022/05/15 07:27:41;;;;;;;4.17;3.30;;;;;;;26.01;27.93;101929.06;5075916;28;21900;-68
2022/05/15 07:30:07;;;;;;;4.57;3.40;;;;;;;25.14;28.45;101923.16;5077622;28;20185;-68
2022/05/15 07:32:33;;;;;;;4.00;3.20;;;;;;;22.01;32.12;101938.16;5075544;28;20459;-67
2022/05/15 07:34:58;;;;;;;3.10;2.60;;;;;;;24.70;27.83;101930.75;5075830;28;20554;-68
2022/05/15 07:37:23;;;;;;;3.13;2.80;;;;;;;24.62;27.90;101927.47;5075423;28;20300;-68
2022/05/15 07:39:48;;;;;;;3.40;3.10;;;;;;;22.01;31.18;101937.28;5076706;28;20255;-67
2022/05/15 07:42:14;;;;;;;4.07;3.13;;;;;;;22.69;30.03;101935.91;5076935;28;20551;-67
2022/05/15 07:44:39;;;;;;;5.60;3.60;;;;;;;23.45;29.87;101944.81;5073216;28;20236;-67
2022/05/15 07:47:05;;;;;;;4.57;3.60;;;;;;;21.55;33.26;101936.31;5076581;28;20307;-67
2022/05/15 07:49:31;;;;;;;2.90;2.70;;;;;;;23.14;29.94;101933.16;5077014;28;20222;-66
2022/05/15 07:51:57;;;;;;;3.60;3.30;;;;;;;26.19;27.57;101916.84;5076873;28;20569;-66
2022/05/15 07:54:22;;;;;;;7.53;4.10;;;;;;;26.34;27.42;101915.41;5073875;28;20411;-67
2022/05/15 07:56:47;;;;;;;3.43;3.10;;;;;;;23.96;29.16;101927.53;5069872;28;20180;-67
2022/05/15 07:59:13;;;;;;;3.07;2.70;;;;;;;24.20;29.18;101926.84;5072660;28;20205;-67
2022/05/15 08:01:39;;;;;;;3.60;3.17;;;;;;;24.08;28.50;101921.88;5069811;28;20272;-67
2022/05/15 08:04:04;;;;;;;4.27;3.30;;;;;;;26.52;25.61;101910.28;5068920;28;20189;-67
2022/05/15 08:09:14;;;;;;;4.73;3.00;;;;;;;24.88;27.95;101921.28;5078094;28;20202;-66
2022/05/15 08:11:40;;;;;;;3.27;2.97;;;;;;;26.25;26.77;101910.44;5080479;28;20419;-67
2022/05/15 08:14:07;;;;;;;3.80;3.13;;;;;;;26.20;26.73;101915.94;5080332;28;20226;-66
2022/05/15 08:16:35;;;;;;;3.83;3.43;;;;;;;26.59;25.87;101918.94;5075540;28;20200;-66
2022/05/15 08:24:29;;;;;;;3.60;3.20;;;;;;;22.14;32.38;101938.78;5063919;28;20442;-66
2022/05/15 08:26:56;;;;;;;4.67;3.20;;;;;;;21.97;31.77;101932.94;5069541;28;20423;-68
2022/05/15 08:29:21;;;;;;;4.47;3.40;;;;;;;25.79;26.76;101912.06;5080995;28;20165;-66
2022/05/15 08:31:48;;;;;;;5.10;3.63;;;;;;;25.55;27.07;101915.56;5074676;28;20446;-66
2022/05/15 08:34:14;;;;;;;5.17;4.70;;;;;;;25.25;28.54;101916.56;5076512;28;20434;-68
2022/05/15 08:36:42;;;;;;;3.13;2.87;;;;;;;24.98;28.37;101919.22;5075182;28;20423;-67
2022/05/15 08:39:09;;;;;;;3.33;3.03;;;;;;;26.69;25.81;101912.31;5080359;28;20415;-66
2022/05/15 08:41:49;;;;;;;4.03;2.90;;;;;;;26.86;25.53;101917.03;5079536;28;20415;-67
2022/05/15 08:44:29;;;;;;;3.63;3.00;;;;;;;27.34;24.88;101912.38;5074690;28;20843;-66
2022/05/15 08:47:00;;;;;;;5.10;3.70;;;;;;;27.32;24.19;101915.13;5073605;28;20884;-66
2022/05/15 08:49:42;;;;;;;3.50;3.10;;;;;;;27.58;24.26;101910.47;5076975;28;21849;-67
2022/05/15 08:52:13;;;;;;;3.10;2.80;;;;;;;27.21;25.21;101918.25;5079201;28;20565;-67
2022/05/15 08:54:48;;;;;;;3.30;2.77;;;;;;;27.36;25.05;101910.47;5079545;28;20447;-67
2022/05/15 08:57:20;;;;;;;2.83;2.63;;;;;;;26.98;24.98;101918.31;5079086;28;20481;-67
2022/05/15 08:59:54;;;;;;;3.00;2.80;;;;;;;28.04;23.97;101912.94;5072618;28;20461;-66
2022/05/15 09:02:21;;;;;;;4.40;3.00;;;;;;;25.53;26.70;101912.09;5075461;28;20730;-66
2022/05/15 09:04:47;;;;;;;3.50;3.20;;;;;;;23.90;28.92;101922.41;5074037;28;20938;-66
2022/05/15 09:07:12;;;;;;;3.07;2.77;;;;;;;24.66;27.93;101913.09;5078708;28;20407;-66
2022/05/15 09:10:13;;;;;;;3.87;3.20;;;;;;;26.94;24.48;101908.66;5077459;28;20177;-66
2022/05/15 09:12:42;;;;;;;3.17;2.87;;;;;;;27.36;24.33;101905.13;5063291;28;20192;-66
2022/05/15 09:15:20;;;;;;;4.20;3.10;;;;;;;26.47;24.77;101904.25;5075359;28;20536;-67
2022/05/15 09:17:58;;;;;;;2.87;2.67;;;;;;;27.06;23.97;101909.03;5059661;28;20467;-67
2022/05/15 09:20:53;;;;;;;3.50;2.63;;;;;;;26.56;24.51;101909.22;5075538;28;20426;-67
2022/05/15 09:23:36;;;;;;;4.23;3.13;;;;;;;27.62;24.17;101901.38;5073583;28;20435;-67
2022/05/15 09:26:07;;;;;;;3.20;2.80;;;;;;;27.32;24.38;101899.06;5076398;28;20731;-66
2022/05/15 09:28:42;;;;;;;3.43;3.13;;;;;;;25.06;27.06;101906.50;5077862;28;20844;-67
2022/05/15 09:31:42;;;;;;;5.13;3.40;;;;;;;26.74;25.25;101899.66;5074898;28;20824;-66
2022/05/15 09:34:26;;;;;;;3.10;2.90;;;;;;;26.17;25.04;101900.03;5078551;28;20415;-67
2022/05/15 09:36:52;;;;;;;4.53;3.17;;;;;;;27.61;23.75;101893.41;5077609;28;20432;-66
2022/05/15 09:39:28;;;;;;;5.47;2.90;;;;;;;27.90;23.80;101898.34;5077495;28;20423;-66
2022/05/15 09:44:51;;;;;;;3.17;2.87;;;;;;;27.10;24.06;101898.22;5067012;28;20470;-66
2022/05/15 09:47:31;;;;;;;3.50;3.10;;;;;;;26.53;25.21;101899.53;5069735;28;20470;-68
2022/05/15 09:49:57;;;;;;;3.40;3.03;;;;;;;27.46;23.38;101901.16;5075931;28;20169;-67
2022/05/15 09:52:36;;;;;;;4.57;3.10;;;;;;;27.14;23.70;101889.97;5072196;28;20428;-67
2022/05/15 09:55:22;;;;;;;3.30;3.00;;;;;;;28.11;22.40;101886.72;5078153;28;20476;-67
2022/05/15 09:57:52;;;;;;;3.50;3.00;;;;;;;26.44;24.43;101888.31;5074534;28;20482;-66
2022/05/15 10:00:21;;;;;;;3.23;2.93;;;;;;;26.45;24.27;101890.94;5075783;28;20419;-67
2022/05/15 10:02:54;;;;;;;3.50;3.17;;;;;;;25.15;25.59;101895.50;5078272;28;20426;-66
2022/05/15 10:05:28;;;;;;;3.90;3.10;;;;;;;26.13;25.04;101887.69;5079067;28;20490;-68
2022/05/15 10:08:05;;;;;;;3.93;3.20;;;;;;;27.83;22.63;101878.13;5079447;28;20809;-66
2022/05/15 10:10:37;;;;;;;3.37;2.80;;;;;;;25.03;25.77;101887.91;5075584;28;20432;-66
2022/05/15 10:13:09;;;;;;;4.43;2.90;;;;;;;24.50;26.35;101889.53;5076753;28;20437;-68
2022/05/15 10:15:44;;;;;;;3.17;2.87;;;;;;;27.19;23.13;101881.75;5076286;28;20435;-65
2022/05/15 10:18:43;;;;;;;3.80;3.10;;;;;;;25.08;26.15;101891.31;5077376;28;20478;-68
2022/05/15 10:21:09;;;;;;;4.17;3.33;;;;;;;25.67;25.69;101878.69;5078072;28;20866;-68
2022/05/15 10:24:11;;;;;;;5.80;2.97;;;;;;;24.78;26.17;101879.84;5078713;28;20416;-66
2022/05/15 10:26:48;;;;;;;5.17;3.40;;;;;;;25.99;25.32;101877.50;5000451;28;20244;-66
2022/05/15 10:29:37;;;;;;;3.67;3.27;;;;;;;26.32;24.82;101879.00;5071572;28;20423;-66
2022/05/15 10:32:11;;;;;;;3.53;3.07;;;;;;;24.93;26.64;101867.81;5078160;28;20431;-66
2022/05/15 10:34:37;;;;;;;3.50;2.97;;;;;;;26.55;24.62;101860.22;5077848;28;20800;-66
2022/05/15 10:37:19;;;;;;;4.03;3.10;;;;;;;27.07;23.50;101864.41;5078504;28;20450;-66
2022/05/15 10:40:05;;;;;;;3.30;3.00;;;;;;;27.11;22.77;101855.31;5077751;28;20188;-66
2022/05/15 10:43:03;;;;;;;3.20;2.90;;;;;;;26.15;24.00;101856.44;5078227;28;20431;-65
2022/05/15 10:45:48;;;;;;;4.37;3.30;;;;;;;26.44;24.20;101851.78;5078480;28;20453;-67
2022/05/15 10:48:25;;;;;;;3.63;3.30;;;;;;;28.16;22.30;101848.03;5077331;28;20471;-66
2022/05/15 10:51:12;;;;;;;3.10;2.80;;;;;;;26.06;24.79;101854.13;5075464;28;20442;-66
2022/05/15 10:57:24;;;;;;;2.83;2.53;;;;;;;27.34;22.67;101843.59;5076713;28;20808;-66
2022/05/15 10:59:53;;;;;;;2.70;2.50;;;;;;;25.77;25.51;101840.00;5067329;28;20458;-67
2022/05/15 11:02:43;;;;;;;3.47;3.17;;;;;;;25.98;24.63;101848.16;5077552;28;20456;-66
2022/05/15 11:05:13;;;;;;;3.40;2.90;;;;;;;24.78;25.61;101843.38;5076490;28;20821;-66
2022/05/15 11:07:51;;;;;;;3.30;3.00;;;;;;;26.42;24.05;101836.72;5076834;28;20423;-65
2022/05/15 11:10:26;;;;;;;3.20;2.90;;;;;;;26.16;24.13;101836.78;5077285;28;20427;-65
2022/05/15 11:13:25;;;;;;;3.77;3.10;;;;;;;26.20;23.86;101842.91;5075685;28;20867;-65
2022/05/15 11:16:02;;;;;;;3.40;2.90;;;;;;;25.33;25.13;101831.75;5062843;28;20438;-66
2022/05/15 11:18:46;;;;;;;3.43;2.90;;;;;;;25.98;24.20;101827.66;5078114;28;20458;-67
2022/05/15 11:21:34;;;;;;;3.80;3.17;;;;;;;25.76;25.41;101830.25;5077052;28;20411;-66
2022/05/15 11:24:07;;;;;;;3.43;2.80;;;;;;;26.27;23.91;101827.50;5076178;28;20423;-66
2022/05/15 11:26:44;;;;;;;4.10;3.23;;;;;;;26.03;24.18;101825.72;5061356;28;20441;-65
2022/05/15 11:29:13;;;;;;;4.03;3.00;;;;;;;25.36;25.07;101819.22;5076594;28;20473;-65
2022/05/15 11:31:49;;;;;;;4.83;3.10;;;;;;;25.13;25.70;101814.66;5040561;28;20419;-66
2022/05/15 11:34:15;;;;;;;3.40;3.10;;;;;;;26.96;23.95;101810.47;5056892;28;20443;-65
2022/05/15 11:36:43;;;;;;;4.20;3.27;;;;;;;25.35;25.84;101813.94;5057485;28;20730;-66
2022/05/15 11:39:14;;;;;;;5.17;3.37;;;;;;;25.59;25.74;101813.97;5072333;28;20222;-66
2022/05/15 11:41:42;;;;;;;3.93;3.53;;;;;;;25.29;26.08;101814.09;5082075;28;20399;-67
2022/05/15 11:44:10;;;;;;;4.17;3.17;;;;;;;24.15;27.09;101816.00;5077381;28;20431;-67